sensor_id;sensor_type;location;lat;lon;timestamp;pressure;altitude;pressure_sealevel;temperature;humidity
47104;BME280;32853;52.164;5.400;2023-05-20T00:01:28;102433.72;;;14.47;89.63
47104;BME280;32853;52.164;5.400;2023-05-20T00:03:58;102481.47;;;14.93;89.00
47104;BME280;32853;52.164;5.400;2023-05-20T00:06:24;102478.13;;;14.88;89.26
47104;BME280;32853;52.164;5.400;2023-05-20T00:08:49;102469.94;;;14.95;86.96
47104;BME280;32853;52.164;5.400;2023-05-20T00:11:18;102436.31;;;14.77;87.58
47104;BME280;32853;52.164;5.400;2023-05-20T00:13:47;102479.56;;;14.96;89.20
47104;BME280;32853;52.164;5.400;2023-05-20T00:16:19;102480.22;;;14.76;92.07
47104;BME280;32853;52.164;5.400;2023-05-20T00:18:53;102489.22;;;14.69;92.26
47104;BME280;32853;52.164;5.400;2023-05-20T00:21:19;102446.03;;;14.47;92.81
47104;BME280;32853;52.164;5.400;2023-05-20T00:23:55;102486.25;;;14.80;92.11
47104;BME280;32853;52.164;5.400;2023-05-20T00:26:21;102481.97;;;14.48;95.33
47104;BME280;32853;52.164;5.400;2023-05-20T00:28:48;102481.63;;;14.88;92.30
47104;BME280;32853;52.164;5.400;2023-05-20T00:31:19;102491.69;;;14.74;91.64
47104;BME280;32853;52.164;5.400;2023-05-20T00:33:51;102499.00;;;14.66;93.25
47104;BME280;32853;52.164;5.400;2023-05-20T00:36:17;102473.94;;;14.52;94.06
47104;BME280;32853;52.164;5.400;2023-05-20T00:38:44;102461.66;;;14.53;95.08
47104;BME280;32853;52.164;5.400;2023-05-20T00:41:09;102477.88;;;14.67;94.28
47104;BME280;32853;52.164;5.400;2023-05-20T00:43:37;102475.84;;;14.47;97.49
47104;BME280;32853;52.164;5.400;2023-05-20T00:46:08;102404.69;;;14.21;94.45
47104;BME280;32853;52.164;5.400;2023-05-20T00:48:39;102401.44;;;14.11;95.87
47104;BME280;32853;52.164;5.400;2023-05-20T00:51:05;102440.59;;;14.53;94.88
47104;BME280;32853;52.164;5.400;2023-05-20T00:53:32;102476.81;;;14.43;97.45
47104;BME280;32853;52.164;5.400;2023-05-20T00:55:59;102476.16;;;14.66;95.21
47104;BME280;32853;52.164;5.400;2023-05-20T00:58:25;102456.69;;;14.41;98.81
47104;BME280;32853;52.164;5.400;2023-05-20T01:00:51;102465.09;;;14.55;97.85
47104;BME280;32853;52.164;5.400;2023-05-20T01:03:18;102467.19;;;14.72;96.35
47104;BME280;32853;52.164;5.400;2023-05-20T01:05:50;102405.66;;;14.17;97.43
47104;BME280;32853;52.164;5.400;2023-05-20T01:08:15;102409.75;;;13.98;100.00
47104;BME280;32853;52.164;5.400;2023-05-20T01:10:45;102456.41;;;14.22;100.00
47104;BME280;32853;52.164;5.400;2023-05-20T01:13:17;102421.81;;;14.05;100.00
47104;BME280;32853;52.164;5.400;2023-05-20T01:15:45;102457.91;;;14.29;100.00
47104;BME280;32853;52.164;5.400;2023-05-20T01:18:13;102457.13;;;14.57;99.17
47104;BME280;32853;52.164;5.400;2023-05-20T01:20:44;102376.84;;;13.83;100.00
47104;BME280;32853;52.164;5.400;2023-05-20T01:23:11;102456.06;;;14.33;100.00
47104;BME280;32853;52.164;5.400;2023-05-20T01:25:37;102449.22;;;14.27;100.00
47104;BME280;32853;52.164;5.400;2023-05-20T01:28:02;102433.63;;;14.21;100.00
47104;BME280;32853;52.164;5.400;2023-05-20T01:30:41;102386.09;;;13.96;100.00
47104;BME280;32853;52.164;5.400;2023-05-20T01:33:11;102441.25;;;14.30;100.00
47104;BME280;32853;52.164;5.400;2023-05-20T01:35:38;102442.81;;;14.36;100.00
47104;BME280;32853;52.164;5.400;2023-05-20T01:38:05;102436.91;;;14.28;100.00
47104;BME280;32853;52.164;5.400;2023-05-20T01:40:32;102352.06;;;13.91;100.00
47104;BME280;32853;52.164;5.400;2023-05-20T01:42:58;102434.38;;;14.24;100.00
47104;BME280;32853;52.164;5.400;2023-05-20T01:45:25;102425.34;;;14.33;100.00
47104;BME280;32853;52.164;5.400;2023-05-20T01:47:51;102433.81;;;14.44;100.00
47104;BME280;32853;52.164;5.400;2023-05-20T01:50:16;102374.88;;;13.91;100.00
47104;BME280;32853;52.164;5.400;2023-05-20T01:52:42;102435.78;;;14.07;100.00
47104;BME280;32853;52.164;5.400;2023-05-20T01:55:16;102431.19;;;14.13;100.00
47104;BME280;32853;52.164;5.400;2023-05-20T01:57:46;102430.53;;;14.36;100.00
47104;BME280;32853;52.164;5.400;2023-05-20T02:00:12;102424.38;;;14.06;100.00
47104;BME280;32853;52.164;5.400;2023-05-20T02:02:37;102417.41;;;14.05;100.00
47104;BME280;32853;52.164;5.400;2023-05-20T02:05:03;102370.69;;;13.84;100.00
47104;BME280;32853;52.164;5.400;2023-05-20T02:07:28;102435.41;;;14.20;100.00
47104;BME280;32853;52.164;5.400;2023-05-20T02:09:53;102426.84;;;14.12;100.00
47104;BME280;32853;52.164;5.400;2023-05-20T02:12:19;102436.31;;;14.18;100.00
47104;BME280;32853;52.164;5.400;2023-05-20T02:14:46;102348.19;;;13.74;100.00
47104;BME280;32853;52.164;5.400;2023-05-20T02:17:16;102418.50;;;14.28;100.00
47104;BME280;32853;52.164;5.400;2023-05-20T02:19:44;102397.31;;;14.03;100.00
47104;BME280;32853;52.164;5.400;2023-05-20T02:22:17;102442.03;;;14.03;100.00
47104;BME280;32853;52.164;5.400;2023-05-20T02:24:47;102434.09;;;14.04;100.00
47104;BME280;32853;52.164;5.400;2023-05-20T02:27:17;102385.03;;;13.72;100.00
47104;BME280;32853;52.164;5.400;2023-05-20T02:29:43;102416.19;;;13.87;100.00
47104;BME280;32853;52.164;5.400;2023-05-20T02:32:09;102409.63;;;13.71;100.00
47104;BME280;32853;52.164;5.400;2023-05-20T02:34:35;102422.16;;;13.92;100.00
47104;BME280;32853;52.164;5.400;2023-05-20T02:37:09;102382.03;;;13.55;100.00
47104;BME280;32853;52.164;5.400;2023-05-20T02:39:34;102424.84;;;13.91;100.00
47104;BME280;32853;52.164;5.400;2023-05-20T02:42:09;102419.13;;;14.06;100.00
47104;BME280;32853;52.164;5.400;2023-05-20T02:44:34;102392.38;;;13.92;100.00
47104;BME280;32853;52.164;5.400;2023-05-20T02:47:00;102415.28;;;13.88;100.00
47104;BME280;32853;52.164;5.400;2023-05-20T02:49:25;102417.81;;;13.91;100.00
47104;BME280;32853;52.164;5.400;2023-05-20T02:52:03;102414.78;;;13.74;100.00
47104;BME280;32853;52.164;5.400;2023-05-20T02:54:28;102402.72;;;13.67;100.00
47104;BME280;32853;52.164;5.400;2023-05-20T02:57:03;102406.00;;;13.75;100.00
47104;BME280;32853;52.164;5.400;2023-05-20T02:59:28;102330.59;;;13.12;100.00
47104;BME280;32853;52.164;5.400;2023-05-20T03:01:53;102402.84;;;13.62;100.00
47104;BME280;32853;52.164;5.400;2023-05-20T03:04:27;102411.22;;;13.77;100.00
47104;BME280;32853;52.164;5.400;2023-05-20T03:07:05;102408.41;;;13.83;100.00
47104;BME280;32853;52.164;5.400;2023-05-20T03:09:34;102364.56;;;13.21;100.00
47104;BME280;32853;52.164;5.400;2023-05-20T03:11:59;102377.03;;;13.46;100.00
47104;BME280;32853;52.164;5.400;2023-05-20T03:14:24;102293.31;;;12.99;100.00
47104;BME280;32853;52.164;5.400;2023-05-20T03:16:50;102396.44;;;13.40;100.00
47104;BME280;32853;52.164;5.400;2023-05-20T03:19:21;102398.44;;;13.63;100.00
47104;BME280;32853;52.164;5.400;2023-05-20T03:21:47;102347.06;;;13.20;100.00
47104;BME280;32853;52.164;5.400;2023-05-20T03:24:13;102406.09;;;13.40;100.00
47104;BME280;32853;52.164;5.400;2023-05-20T03:26:39;102415.88;;;13.67;100.00
47104;BME280;32853;52.164;5.400;2023-05-20T03:29:08;102360.84;;;13.28;100.00
47104;BME280;32853;52.164;5.400;2023-05-20T03:31:35;102416.84;;;13.63;100.00
47104;BME280;32853;52.164;5.400;2023-05-20T03:34:01;102412.88;;;13.48;100.00
47104;BME280;32853;52.164;5.400;2023-05-20T03:36:28;102401.06;;;13.64;100.00
47104;BME280;32853;52.164;5.400;2023-05-20T03:39:07;102415.59;;;13.45;100.00
47104;BME280;32853;52.164;5.400;2023-05-20T03:41:32;102368.81;;;13.25;100.00
47104;BME280;32853;52.164;5.400;2023-05-20T03:44:12;102422.09;;;13.63;100.00
47104;BME280;32853;52.164;5.400;2023-05-20T03:46:40;102379.53;;;13.16;100.00
47104;BME280;32853;52.164;5.400;2023-05-20T03:49:05;102413.84;;;13.77;100.00
47104;BME280;32853;52.164;5.400;2023-05-20T03:51:31;102373.81;;;13.67;100.00
47104;BME280;32853;52.164;5.400;2023-05-20T03:53:56;102342.09;;;13.42;100.00
47104;BME280;32853;52.164;5.400;2023-05-20T03:56:22;102411.47;;;13.68;100.00
47104;BME280;32853;52.164;5.400;2023-05-20T03:58:47;102413.63;;;13.53;100.00
47104;BME280;32853;52.164;5.400;2023-05-20T04:01:12;102386.53;;;13.50;100.00
47104;BME280;32853;52.164;5.400;2023-05-20T04:03:39;102420.94;;;13.75;100.00
47104;BME280;32853;52.164;5.400;2023-05-20T04:06:06;102412.16;;;13.74;100.00
47104;BME280;32853;52.164;5.400;2023-05-20T04:08:31;102388.31;;;13.49;100.00
47104;BME280;32853;52.164;5.400;2023-05-20T04:10:56;102360.78;;;13.30;100.00
47104;BME280;32853;52.164;5.400;2023-05-20T04:13:24;102415.09;;;13.63;100.00
47104;BME280;32853;52.164;5.400;2023-05-20T04:15:50;102392.81;;;13.46;100.00
47104;BME280;32853;52.164;5.400;2023-05-20T04:18:17;102408.94;;;13.64;100.00
47104;BME280;32853;52.164;5.400;2023-05-20T04:20:42;102407.78;;;13.75;100.00
47104;BME280;32853;52.164;5.400;2023-05-20T04:23:09;102412.84;;;13.81;100.00
47104;BME280;32853;52.164;5.400;2023-05-20T04:25:34;102394.19;;;13.59;100.00
47104;BME280;32853;52.164;5.400;2023-05-20T04:28:01;102359.13;;;13.27;100.00
47104;BME280;32853;52.164;5.400;2023-05-20T04:30:26;102376.16;;;13.45;100.00
47104;BME280;32853;52.164;5.400;2023-05-20T04:32:53;102410.72;;;13.93;100.00
47104;BME280;32853;52.164;5.400;2023-05-20T04:35:18;102415.53;;;14.10;100.00
47104;BME280;32853;52.164;5.400;2023-05-20T04:37:44;102395.59;;;14.02;100.00
47104;BME280;32853;52.164;5.400;2023-05-20T04:40:19;102415.41;;;14.13;100.00
47104;BME280;32853;52.164;5.400;2023-05-20T04:42:45;102376.91;;;13.81;100.00
47104;BME280;32853;52.164;5.400;2023-05-20T04:45:11;102407.59;;;13.81;100.00
47104;BME280;32853;52.164;5.400;2023-05-20T04:47:47;102423.38;;;13.81;100.00
47104;BME280;32853;52.164;5.400;2023-05-20T04:50:13;102422.66;;;14.05;100.00
47104;BME280;32853;52.164;5.400;2023-05-20T04:52:38;102419.63;;;13.89;100.00
47104;BME280;32853;52.164;5.400;2023-05-20T04:55:29;102421.44;;;13.87;100.00
47104;BME280;32853;52.164;5.400;2023-05-20T04:58:04;102423.78;;;13.96;100.00
47104;BME280;32853;52.164;5.400;2023-05-20T05:00:34;102424.69;;;13.97;100.00
47104;BME280;32853;52.164;5.400;2023-05-20T05:03:00;102419.78;;;14.14;100.00
47104;BME280;32853;52.164;5.400;2023-05-20T05:05:29;102426.94;;;14.09;100.00
47104;BME280;32853;52.164;5.400;2023-05-20T05:07:54;102417.59;;;13.99;100.00
47104;BME280;32853;52.164;5.400;2023-05-20T05:10:24;102409.75;;;13.98;100.00
47104;BME280;32853;52.164;5.400;2023-05-20T05:12:49;102390.28;;;14.03;100.00
47104;BME280;32853;52.164;5.400;2023-05-20T05:15:15;102363.59;;;13.87;100.00
47104;BME280;32853;52.164;5.400;2023-05-20T05:17:45;102410.47;;;14.32;100.00
47104;BME280;32853;52.164;5.400;2023-05-20T05:20:10;102362.75;;;13.85;100.00
47104;BME280;32853;52.164;5.400;2023-05-20T05:22:56;102422.78;;;14.32;100.00
47104;BME280;32853;52.164;5.400;2023-05-20T05:25:21;102402.00;;;14.22;100.00
47104;BME280;32853;52.164;5.400;2023-05-20T05:27:47;102378.22;;;14.25;100.00
47104;BME280;32853;52.164;5.400;2023-05-20T05:30:16;102400.84;;;14.31;100.00
47104;BME280;32853;52.164;5.400;2023-05-20T05:32:45;102393.81;;;14.32;100.00
47104;BME280;32853;52.164;5.400;2023-05-20T05:35:10;102360.63;;;13.98;100.00
47104;BME280;32853;52.164;5.400;2023-05-20T05:37:36;102392.97;;;14.31;100.00
47104;BME280;32853;52.164;5.400;2023-05-20T05:40:03;102375.44;;;14.30;100.00
47104;BME280;32853;52.164;5.400;2023-05-20T05:42:30;102390.59;;;14.51;100.00
47104;BME280;32853;52.164;5.400;2023-05-20T05:44:56;102348.41;;;14.25;100.00
47104;BME280;32853;52.164;5.400;2023-05-20T05:47:30;102400.59;;;14.68;100.00
47104;BME280;32853;52.164;5.400;2023-05-20T05:49:57;102397.16;;;14.66;100.00
47104;BME280;32853;52.164;5.400;2023-05-20T05:52:32;102401.50;;;14.67;100.00
47104;BME280;32853;52.164;5.400;2023-05-20T05:54:58;102403.34;;;14.65;100.00
47104;BME280;32853;52.164;5.400;2023-05-20T05:57:26;102389.19;;;14.68;100.00
47104;BME280;32853;52.164;5.400;2023-05-20T05:59:59;102338.50;;;14.61;100.00
47104;BME280;32853;52.164;5.400;2023-05-20T06:02:33;102391.16;;;15.14;100.00
47104;BME280;32853;52.164;5.400;2023-05-20T06:05:02;102389.03;;;14.72;100.00
47104;BME280;32853;52.164;5.400;2023-05-20T06:07:30;102386.22;;;14.78;100.00
47104;BME280;32853;52.164;5.400;2023-05-20T06:09:56;102384.56;;;14.76;100.00
47104;BME280;32853;52.164;5.400;2023-05-20T06:12:22;102388.34;;;14.94;100.00
47104;BME280;32853;52.164;5.400;2023-05-20T06:14:55;102340.09;;;14.67;100.00
47104;BME280;32853;52.164;5.400;2023-05-20T06:17:21;102396.56;;;15.11;100.00
47104;BME280;32853;52.164;5.400;2023-05-20T06:19:46;102407.84;;;15.15;100.00
47104;BME280;32853;52.164;5.400;2023-05-20T06:22:17;102395.88;;;15.04;100.00
47104;BME280;32853;52.164;5.400;2023-05-20T06:24:43;102396.78;;;15.30;100.00
47104;BME280;32853;52.164;5.400;2023-05-20T06:27:09;102349.28;;;15.31;100.00
47104;BME280;32853;52.164;5.400;2023-05-20T06:29:52;102396.06;;;15.50;100.00
47104;BME280;32853;52.164;5.400;2023-05-20T06:32:19;102372.03;;;15.34;100.00
47104;BME280;32853;52.164;5.400;2023-05-20T06:34:44;102363.41;;;15.54;100.00
47104;BME280;32853;52.164;5.400;2023-05-20T06:37:10;102389.78;;;15.79;100.00
47104;BME280;32853;52.164;5.400;2023-05-20T06:39:36;102393.84;;;16.11;99.00
47104;BME280;32853;52.164;5.400;2023-05-20T06:42:05;102393.25;;;16.26;98.65
47104;BME280;32853;52.164;5.400;2023-05-20T06:44:35;102354.09;;;15.92;98.55
47104;BME280;32853;52.164;5.400;2023-05-20T06:47:00;102373.69;;;16.32;96.50
47104;BME280;32853;52.164;5.400;2023-05-20T06:49:26;102364.66;;;16.37;95.61
47104;BME280;32853;52.164;5.400;2023-05-20T06:51:52;102335.38;;;16.43;93.77
47104;BME280;32853;52.164;5.400;2023-05-20T06:54:17;102387.91;;;16.93;93.40
47104;BME280;32853;52.164;5.400;2023-05-20T06:57:01;102384.75;;;17.05;90.25
47104;BME280;32853;52.164;5.400;2023-05-20T06:59:33;102364.06;;;16.74;89.08
47104;BME280;32853;52.164;5.400;2023-05-20T07:01:59;102376.84;;;17.05;88.97
47104;BME280;32853;52.164;5.400;2023-05-20T07:04:41;102311.16;;;16.76;86.89
47104;BME280;32853;52.164;5.400;2023-05-20T07:07:07;102321.34;;;16.85;86.71
47104;BME280;32853;52.164;5.400;2023-05-20T07:09:44;102369.97;;;17.42;84.64
47104;BME280;32853;52.164;5.400;2023-05-20T07:12:10;102373.22;;;17.67;82.98
47104;BME280;32853;52.164;5.400;2023-05-20T07:14:35;102356.81;;;17.40;82.97
47104;BME280;32853;52.164;5.400;2023-05-20T07:17:04;102368.00;;;17.86;81.63
47104;BME280;32853;52.164;5.400;2023-05-20T07:19:31;102371.44;;;17.88;81.13
47104;BME280;32853;52.164;5.400;2023-05-20T07:21:58;102358.63;;;17.98;78.19
47104;BME280;32853;52.164;5.400;2023-05-20T07:24:36;102369.34;;;17.95;78.72
47104;BME280;32853;52.164;5.400;2023-05-20T07:27:05;102337.53;;;17.78;75.29
47104;BME280;32853;52.164;5.400;2023-05-20T07:29:30;102356.41;;;18.08;75.97
47104;BME280;32853;52.164;5.400;2023-05-20T07:31:56;102358.47;;;18.20;75.57
47104;BME280;32853;52.164;5.400;2023-05-20T07:34:23;102334.50;;;18.04;74.09
47104;BME280;32853;52.164;5.400;2023-05-20T07:37:07;102357.66;;;18.18;71.87
47104;BME280;32853;52.164;5.400;2023-05-20T07:39:35;102353.53;;;18.67;73.10
47104;BME280;32853;52.164;5.400;2023-05-20T07:42:00;102337.75;;;18.28;68.71
47104;BME280;32853;52.164;5.400;2023-05-20T07:44:31;102348.75;;;18.56;68.30
47104;BME280;32853;52.164;5.400;2023-05-20T07:46:56;102336.34;;;18.76;68.64
47104;BME280;32853;52.164;5.400;2023-05-20T07:49:22;102359.25;;;18.77;66.39
47104;BME280;32853;52.164;5.400;2023-05-20T07:51:47;102317.38;;;18.66;65.61
47104;BME280;32853;52.164;5.400;2023-05-20T07:54:14;102348.50;;;18.61;68.58
47104;BME280;32853;52.164;5.400;2023-05-20T07:56:40;102291.06;;;18.44;68.87
47104;BME280;32853;52.164;5.400;2023-05-20T07:59:05;102279.31;;;18.14;65.42
47104;BME280;32853;52.164;5.400;2023-05-20T08:01:34;102232.63;;;18.30;65.37
47104;BME280;32853;52.164;5.400;2023-05-20T08:04:00;102327.91;;;19.02;68.25
47104;BME280;32853;52.164;5.400;2023-05-20T08:06:25;102324.53;;;19.16;69.46
47104;BME280;32853;52.164;5.400;2023-05-20T08:08:51;102300.25;;;19.24;68.30
47104;BME280;32853;52.164;5.400;2023-05-20T08:11:20;102318.50;;;19.30;68.18
47104;BME280;32853;52.164;5.400;2023-05-20T08:13:48;102319.72;;;19.07;60.01
47104;BME280;32853;52.164;5.400;2023-05-20T08:16:14;102324.16;;;19.57;61.38
47104;BME280;32853;52.164;5.400;2023-05-20T08:18:39;102322.00;;;19.96;63.75
47104;BME280;32853;52.164;5.400;2023-05-20T08:21:06;102324.53;;;19.66;56.28
47104;BME280;32853;52.164;5.400;2023-05-20T08:23:48;102287.00;;;19.57;54.92
47104;BME280;32853;52.164;5.400;2023-05-20T08:26:13;102283.31;;;19.59;55.01
47104;BME280;32853;52.164;5.400;2023-05-20T08:28:39;102328.97;;;19.82;54.79
47104;BME280;32853;52.164;5.400;2023-05-20T08:31:11;102270.09;;;19.42;53.66
47104;BME280;32853;52.164;5.400;2023-05-20T08:33:38;102306.53;;;19.56;52.59
47104;BME280;32853;52.164;5.400;2023-05-20T08:36:05;102296.78;;;20.03;52.17
47104;BME280;32853;52.164;5.400;2023-05-20T08:38:41;102262.06;;;19.43;51.07
47104;BME280;32853;52.164;5.400;2023-05-20T08:41:07;102248.16;;;19.56;52.18
47104;BME280;32853;52.164;5.400;2023-05-20T08:43:32;102313.31;;;19.93;51.47
47104;BME280;32853;52.164;5.400;2023-05-20T08:45:58;102308.59;;;19.66;50.46
47104;BME280;32853;52.164;5.400;2023-05-20T08:48:26;102279.28;;;19.52;50.84
47104;BME280;32853;52.164;5.400;2023-05-20T08:50:56;102311.06;;;20.17;50.76
47104;BME280;32853;52.164;5.400;2023-05-20T08:53:37;102302.63;;;19.79;50.41
47104;BME280;32853;52.164;5.400;2023-05-20T08:56:06;102301.06;;;20.22;49.68
47104;BME280;32853;52.164;5.400;2023-05-20T08:58:33;102244.72;;;19.69;49.36
47104;BME280;32853;52.164;5.400;2023-05-20T09:01:08;102271.78;;;19.76;49.80
47104;BME280;32853;52.164;5.400;2023-05-20T09:03:33;102255.75;;;19.93;49.00
47104;BME280;32853;52.164;5.400;2023-05-20T09:06:06;102295.84;;;20.05;49.09
47104;BME280;32853;52.164;5.400;2023-05-20T09:08:34;102295.09;;;19.87;49.44
47104;BME280;32853;52.164;5.400;2023-05-20T09:11:00;102300.66;;;19.98;49.27
47104;BME280;32853;52.164;5.400;2023-05-20T09:13:33;102287.28;;;19.68;49.43
47104;BME280;32853;52.164;5.400;2023-05-20T09:15:59;102277.44;;;19.86;49.85
47104;BME280;32853;52.164;5.400;2023-05-20T09:18:26;102277.41;;;20.01;49.34
47104;BME280;32853;52.164;5.400;2023-05-20T09:20:52;102284.81;;;19.96;49.98
47104;BME280;32853;52.164;5.400;2023-05-20T09:23:18;102288.72;;;20.21;49.13
47104;BME280;32853;52.164;5.400;2023-05-20T09:25:48;102284.97;;;20.09;48.61
47104;BME280;32853;52.164;5.400;2023-05-20T09:28:14;102275.59;;;20.34;48.44
47104;BME280;32853;52.164;5.400;2023-05-20T09:30:42;102157.94;;;20.16;48.96
47104;BME280;32853;52.164;5.400;2023-05-20T09:33:10;102274.59;;;20.80;48.36
47104;BME280;32853;52.164;5.400;2023-05-20T09:35:42;102268.84;;;21.02;47.38
47104;BME280;32853;52.164;5.400;2023-05-20T09:38:09;102227.34;;;20.85;47.67
47104;BME280;32853;52.164;5.400;2023-05-20T09:40:35;102189.13;;;20.72;47.05
47104;BME280;32853;52.164;5.400;2023-05-20T09:43:10;102231.63;;;21.45;46.67
47104;BME280;32853;52.164;5.400;2023-05-20T09:45:36;102255.38;;;21.34;45.83
47104;BME280;32853;52.164;5.400;2023-05-20T09:48:03;102256.78;;;21.25;46.26
47104;BME280;32853;52.164;5.400;2023-05-20T09:50:30;102263.91;;;21.10;45.86
47104;BME280;32853;52.164;5.400;2023-05-20T09:53:02;102255.91;;;21.25;46.65
47104;BME280;32853;52.164;5.400;2023-05-20T09:55:29;102236.44;;;21.24;46.38
47104;BME280;32853;52.164;5.400;2023-05-20T09:57:58;102174.03;;;20.73;45.35
47104;BME280;32853;52.164;5.400;2023-05-20T10:00:25;102268.75;;;21.04;45.69
47104;BME280;32853;52.164;5.400;2023-05-20T10:02:51;102207.28;;;20.80;44.45
47104;BME280;32853;52.164;5.400;2023-05-20T10:05:26;102246.25;;;21.38;45.32
47104;BME280;32853;52.164;5.400;2023-05-20T10:08:11;102248.09;;;20.79;45.24
47104;BME280;32853;52.164;5.400;2023-05-20T10:10:49;102244.03;;;20.73;45.70
47104;BME280;32853;52.164;5.400;2023-05-20T10:16:16;102245.03;;;20.56;45.99
47104;BME280;32853;52.164;5.400;2023-05-20T10:19:12;102239.69;;;20.86;46.23
47104;BME280;32853;52.164;5.400;2023-05-20T10:21:39;102220.91;;;21.32;46.56
47104;BME280;32853;52.164;5.400;2023-05-20T10:24:09;102222.28;;;21.38;45.67
47104;BME280;32853;52.164;5.400;2023-05-20T10:26:41;102107.22;;;21.06;44.05
47104;BME280;32853;52.164;5.400;2023-05-20T10:29:17;102226.63;;;21.94;44.36
47104;BME280;32853;52.164;5.400;2023-05-20T10:31:51;102220.25;;;21.70;44.20
47104;BME280;32853;52.164;5.400;2023-05-20T10:34:21;102215.44;;;21.48;43.94
47104;BME280;32853;52.164;5.400;2023-05-20T10:39:25;102192.34;;;21.49;44.47
47104;BME280;32853;52.164;5.400;2023-05-20T10:42:09;102199.63;;;21.59;44.95
47104;BME280;32853;52.164;5.400;2023-05-20T10:44:43;102204.19;;;21.30;44.98
47104;BME280;32853;52.164;5.400;2023-05-20T10:47:09;102174.91;;;21.57;45.72
47104;BME280;32853;52.164;5.400;2023-05-20T10:49:43;102198.28;;;21.39;45.46
47104;BME280;32853;52.164;5.400;2023-05-20T10:52:20;102187.91;;;21.06;45.88
47104;BME280;32853;52.164;5.400;2023-05-20T10:54:56;102158.84;;;21.17;45.82
47104;BME280;32853;52.164;5.400;2023-05-20T10:57:26;102204.38;;;21.68;45.48
47104;BME280;32853;52.164;5.400;2023-05-20T10:59:57;102201.63;;;21.97;44.85
47104;BME280;32853;52.164;5.400;2023-05-20T11:02:36;102145.91;;;21.40;44.96
47104;BME280;32853;52.164;5.400;2023-05-20T11:05:02;102176.06;;;21.80;44.73
47104;BME280;32853;52.164;5.400;2023-05-20T11:07:43;102180.75;;;21.77;44.02
47104;BME280;32853;52.164;5.400;2023-05-20T11:10:09;102181.16;;;21.70;45.53
47104;BME280;32853;52.164;5.400;2023-05-20T11:12:35;102134.88;;;21.32;45.51
47104;BME280;32853;52.164;5.400;2023-05-20T11:15:10;102192.72;;;22.11;45.17
47104;BME280;32853;52.164;5.400;2023-05-20T11:17:51;102178.69;;;21.67;45.59
47104;BME280;32853;52.164;5.400;2023-05-20T11:20:19;102171.47;;;21.69;46.23
47104;BME280;32853;52.164;5.400;2023-05-20T11:22:45;102137.09;;;22.06;45.59
47104;BME280;32853;52.164;5.400;2023-05-20T11:25:11;102177.38;;;22.14;44.58
47104;BME280;32853;52.164;5.400;2023-05-20T11:30:07;102082.63;;;21.31;45.27
47104;BME280;32853;52.164;5.400;2023-05-20T11:32:33;102135.03;;;21.97;45.41
47104;BME280;32853;52.164;5.400;2023-05-20T11:34:58;102148.81;;;22.16;45.12
47104;BME280;32853;52.164;5.400;2023-05-20T11:37:23;102105.91;;;21.94;45.46
47104;BME280;32853;52.164;5.400;2023-05-20T11:40:02;102174.38;;;22.97;46.20
47104;BME280;32853;52.164;5.400;2023-05-20T11:42:31;102038.81;;;22.14;44.04
47104;BME280;32853;52.164;5.400;2023-05-20T11:44:59;102159.03;;;23.24;43.87
47104;BME280;32853;52.164;5.400;2023-05-20T11:47:24;102157.28;;;23.36;43.85
47104;BME280;32853;52.164;5.400;2023-05-20T11:49:53;102155.97;;;23.05;43.32
47104;BME280;32853;52.164;5.400;2023-05-20T11:52:18;102160.31;;;23.31;43.63
47104;BME280;32853;52.164;5.400;2023-05-20T11:54:43;102079.72;;;22.89;43.71
47104;BME280;32853;52.164;5.400;2023-05-20T11:57:12;102123.38;;;23.25;43.71
47104;BME280;32853;52.164;5.400;2023-05-20T11:59:37;102128.59;;;22.65;44.15
47104;BME280;32853;52.164;5.400;2023-05-20T12:02:03;102136.91;;;22.73;43.66
47104;BME280;32853;52.164;5.400;2023-05-20T12:04:30;102114.50;;;22.24;44.91
47104;BME280;32853;52.164;5.400;2023-05-20T12:07:01;102138.81;;;22.71;44.56
47104;BME280;32853;52.164;5.400;2023-05-20T12:09:28;102100.03;;;22.28;44.48
47104;BME280;32853;52.164;5.400;2023-05-20T12:11:53;102137.22;;;22.68;45.03
47104;BME280;32853;52.164;5.400;2023-05-20T12:14:20;102122.31;;;22.66;44.79
47104;BME280;32853;52.164;5.400;2023-05-20T12:16:46;102076.50;;;22.72;45.03
47104;BME280;32853;52.164;5.400;2023-05-20T12:19:19;102141.91;;;23.03;43.63
47104;BME280;32853;52.164;5.400;2023-05-20T12:21:44;102116.72;;;23.07;43.33
47104;BME280;32853;52.164;5.400;2023-05-20T12:24:19;102119.63;;;23.28;43.39
47104;BME280;32853;52.164;5.400;2023-05-20T12:26:45;102121.44;;;23.27;43.26
47104;BME280;32853;52.164;5.400;2023-05-20T12:29:10;102122.53;;;23.25;43.80
47104;BME280;32853;52.164;5.400;2023-05-20T12:31:37;102043.38;;;22.63;42.36
47104;BME280;32853;52.164;5.400;2023-05-20T12:34:09;102011.56;;;22.60;43.11
47104;BME280;32853;52.164;5.400;2023-05-20T12:36:35;102117.16;;;23.85;43.27
47104;BME280;32853;52.164;5.400;2023-05-20T12:39:03;102096.69;;;22.88;42.63
47104;BME280;32853;52.164;5.400;2023-05-20T12:41:29;102078.81;;;22.52;43.80
47104;BME280;32853;52.164;5.400;2023-05-20T12:44:00;102121.78;;;23.23;43.56
47104;BME280;32853;52.164;5.400;2023-05-20T12:46:25;102131.31;;;23.14;43.38
47104;BME280;32853;52.164;5.400;2023-05-20T12:48:52;102009.63;;;22.25;43.49
47104;BME280;32853;52.164;5.400;2023-05-20T12:51:17;102113.88;;;22.84;43.27
47104;BME280;32853;52.164;5.400;2023-05-20T12:53:44;102064.69;;;23.36;43.13
47104;BME280;32853;52.164;5.400;2023-05-20T12:56:09;102108.50;;;23.58;42.75
47104;BME280;32853;52.164;5.400;2023-05-20T12:58:35;102064.91;;;23.57;42.34
47104;BME280;32853;52.164;5.400;2023-05-20T13:01:00;101996.47;;;22.48;43.63